createdAt,value
2023-07-24T00:00:35.050Z,100121.09
2023-07-24T00:05:37.204Z,100111.59
2023-07-24T00:10:40.928Z,100102.84
2023-07-24T00:15:42.886Z,100105.00
2023-07-24T00:20:45.017Z,100107.25
2023-07-24T00:25:48.592Z,100087.75
2023-07-24T00:30:50.786Z,100090.88
2023-07-24T00:35:56.633Z,100080.19
2023-07-24T00:41:00.106Z,100080.28
2023-07-24T00:46:03.863Z,100069.09
2023-07-24T00:51:06.885Z,100068.31
2023-07-24T00:56:11.141Z,100052.84
2023-07-24T01:01:12.930Z,100053.56
2023-07-24T01:06:14.776Z,100048.19
2023-07-24T01:11:21.395Z,100045.22
2023-07-24T01:16:27.217Z,100035.19
2023-07-24T01:21:39.510Z,100039.53
2023-07-24T01:26:43.488Z,100037.63
2023-07-24T01:31:45.678Z,100032.78
2023-07-24T01:36:49.997Z,100031.56
2023-07-24T01:41:53.651Z,100026.03
2023-07-24T01:46:55.847Z,100029.66
2023-07-24T01:51:57.710Z,100027.41
2023-07-24T01:57:01.291Z,100018.81
2023-07-24T02:02:03.612Z,100010.59
2023-07-24T02:07:05.780Z,100017.88
2023-07-24T02:12:09.521Z,100002.28
2023-07-24T02:17:11.517Z,100018.38
2023-07-24T02:22:13.958Z,100009.28
2023-07-24T02:27:26.385Z,100021.69
2023-07-24T02:32:28.639Z,100016.81
2023-07-24T02:37:30.873Z,100019.94
2023-07-24T02:42:34.400Z,100016.50
2023-07-24T02:47:36.579Z,100025.00
2023-07-24T02:52:38.807Z,100028.22
2023-07-24T02:57:41.928Z,100037.66
2023-07-24T03:02:44.215Z,100040.94
2023-07-24T03:07:46.049Z,100042.41
2023-07-24T03:12:49.503Z,100042.97
2023-07-24T03:17:51.526Z,100042.97
2023-07-24T03:22:53.414Z,100037.22
2023-07-24T03:27:56.872Z,100048.00
2023-07-24T03:32:59.239Z,100042.25
2023-07-24T03:38:01.236Z,100042.25
2023-07-24T03:43:04.362Z,100041.84
2023-07-24T03:48:06.827Z,100051.38
2023-07-24T03:53:09.053Z,100048.22
2023-07-24T03:58:12.375Z,100037.84
2023-07-24T04:03:15.121Z,100047.06
2023-07-24T04:08:17.235Z,100036.09
2023-07-24T04:13:20.855Z,100037.63
2023-07-24T04:18:22.876Z,100041.66
2023-07-24T04:23:24.638Z,100046.81
2023-07-24T04:28:27.728Z,100043.31
2023-07-24T04:33:29.606Z,100039.59
2023-07-24T04:38:33.141Z,100041.34
2023-07-24T04:43:36.608Z,100039.13
2023-07-24T04:48:38.357Z,100038.41
2023-07-24T04:53:40.509Z,100024.19
2023-07-24T04:58:43.886Z,100025.78
2023-07-24T05:03:45.734Z,100021.38
2023-07-24T05:08:47.566Z,100018.16
2023-07-24T05:13:50.778Z,100011.63
2023-07-24T05:18:52.948Z,100004.88
2023-07-24T05:23:54.759Z,100007.56
2023-07-24T05:28:58.474Z,100002.09
2023-07-24T05:34:00.199Z,100003.94
2023-07-24T05:39:02.370Z,99992.44
2023-07-24T05:44:05.827Z,99995.88
2023-07-24T05:49:08.010Z,99992.31
2023-07-24T05:54:09.911Z,99980.84
2023-07-24T05:59:13.420Z,99980.06
2023-07-24T06:04:15.281Z,99975.16
2023-07-24T06:09:17.099Z,99970.13
2023-07-24T06:14:20.887Z,99969.78
2023-07-24T06:19:23.317Z,99969.28
2023-07-24T06:24:25.471Z,99964.66
2023-07-24T06:29:28.945Z,99965.94
2023-07-24T06:34:31.124Z,99964.41
2023-07-24T06:39:32.876Z,99958.44
2023-07-24T06:44:36.597Z,99957.63
2023-07-24T06:49:38.814Z,99940.47
2023-07-24T06:54:40.961Z,99923.81
2023-07-24T06:59:44.459Z,99933.69
2023-07-24T07:04:46.614Z,99922.81
2023-07-24T07:09:48.767Z,99931.31
2023-07-24T07:14:52.561Z,99924.16
2023-07-24T07:19:54.877Z,99909.31
2023-07-24T07:24:56.837Z,99930.19
2023-07-24T07:30:00.457Z,99925.94
2023-07-24T07:35:02.481Z,99935.44
2023-07-24T07:40:05.492Z,99932.47
2023-07-24T07:45:10.092Z,99940.31
2023-07-24T07:50:11.869Z,99936.69
2023-07-24T07:55:14.219Z,99920.19
2023-07-24T08:00:18.445Z,99907.66
2023-07-24T08:05:21.324Z,99904.28
2023-07-24T08:10:23.512Z,99901.34
2023-07-24T08:15:27.178Z,99914.09
2023-07-24T08:20:29.864Z,99905.19
2023-07-24T08:25:32.273Z,99892.56
2023-07-24T08:30:36.058Z,99881.69
2023-07-24T08:35:37.980Z,99883.94
2023-07-24T08:40:40.224Z,99864.88
2023-07-24T08:45:43.824Z,99872.22
2023-07-24T08:50:48.176Z,99869.34
2023-07-24T08:55:52.808Z,99856.88
2023-07-24T09:00:57.866Z,99846.50
2023-07-24T09:06:00.156Z,99854.28
2023-07-24T09:11:03.329Z,99840.19
2023-07-24T09:16:07.458Z,99831.91
2023-07-24T09:21:11.436Z,99839.34
2023-07-24T09:26:13.766Z,99825.63
2023-07-24T09:31:17.534Z,99834.22
2023-07-24T09:36:19.710Z,99850.47
2023-07-24T09:41:29.084Z,99842.09
2023-07-24T09:46:33.408Z,99836.16
2023-07-24T09:51:37.021Z,99823.47
2023-07-24T09:56:50.495Z,99817.69
2023-07-24T10:01:57.249Z,99799.69
2023-07-24T10:06:59.476Z,99784.84
2023-07-24T10:12:02.811Z,99770.78
2023-07-24T10:17:06.820Z,99755.53
2023-07-24T10:22:08.851Z,99747.25
2023-07-24T10:27:11.159Z,99745.09
2023-07-24T10:32:20.953Z,99747.28
2023-07-24T10:37:32.902Z,99730.34
2023-07-24T10:42:35.463Z,99718.03
2023-07-24T10:47:38.996Z,99709.00
2023-07-24T10:52:41.203Z,99707.28
2023-07-24T10:57:43.167Z,99696.19
2023-07-24T11:02:46.574Z,99692.91
2023-07-24T11:07:48.920Z,99684.38
2023-07-24T11:12:51.316Z,99664.97
2023-07-24T11:17:55.332Z,99672.03
2023-07-24T11:22:59.190Z,99649.47
2023-07-24T11:28:01.470Z,99645.13
2023-07-24T11:33:07.656Z,99642.25
2023-07-24T11:38:10.781Z,99627.00
2023-07-24T11:43:17.155Z,99629.88
2023-07-24T11:48:21.709Z,99635.06
2023-07-24T11:53:26.093Z,99608.72
2023-07-24T11:58:28.946Z,99625.59
2023-07-24T12:03:32.681Z,99631.81
2023-07-24T12:08:36.802Z,99646.22
2023-07-24T12:13:39.104Z,99633.66
2023-07-24T12:18:42.757Z,99654.69
2023-07-24T12:23:45.250Z,99652.72
2023-07-24T12:28:47.339Z,99668.19
2023-07-24T12:33:50.855Z,99657.91
2023-07-24T12:38:53.073Z,99664.09
2023-07-24T12:43:55.207Z,99662.19
2023-07-24T12:48:58.833Z,99648.59
2023-07-24T12:54:11.758Z,99647.72
2023-07-24T12:59:23.643Z,99640.03
2023-07-24T13:04:27.135Z,99642.91
2023-07-24T13:09:29.398Z,99633.75
2023-07-24T13:14:31.258Z,99628.13
2023-07-24T13:19:34.394Z,99628.81
2023-07-24T13:24:37.602Z,99614.06
2023-07-24T13:29:39.405Z,99608.75
2023-07-24T13:34:42.920Z,99607.44
2023-07-24T13:39:45.386Z,99594.50
2023-07-24T13:44:47.848Z,99579.53
2023-07-24T13:49:51.454Z,99577.78
2023-07-24T13:54:53.186Z,99558.69
2023-07-24T13:59:55.475Z,99550.03
2023-07-24T14:04:59.062Z,99565.09
2023-07-24T14:10:01.223Z,99560.31
2023-07-24T14:15:03.663Z,99562.88
2023-07-24T14:20:08.780Z,99584.53
2023-07-24T14:25:11.192Z,99578.81
2023-07-24T14:30:13.381Z,99557.53
2023-07-24T14:35:16.567Z,99548.41
2023-07-24T14:40:19.081Z,99537.69
2023-07-24T14:45:21.368Z,99525.81
2023-07-24T14:50:24.869Z,99512.44
2023-07-24T14:55:26.813Z,99510.47
2023-07-24T15:00:28.740Z,99501.00
2023-07-24T15:05:32.409Z,99498.84
2023-07-24T15:10:34.490Z,99481.84
2023-07-24T15:15:37.269Z,99464.38
2023-07-24T15:20:42.337Z,99449.63
2023-07-24T15:25:44.592Z,99442.53
2023-07-24T15:30:46.708Z,99431.31
2023-07-24T15:35:50.815Z,99428.72
2023-07-24T15:40:52.619Z,99428.19
2023-07-24T15:45:54.637Z,99421.22
2023-07-24T15:50:58.185Z,99416.75
2023-07-24T15:56:00.573Z,99404.50
2023-07-24T16:01:02.953Z,99415.16
2023-07-24T16:06:06.116Z,99405.84
2023-07-24T16:11:08.267Z,99395.84
2023-07-24T16:16:10.649Z,99390.75
2023-07-24T16:21:13.782Z,99382.81
2023-07-24T16:26:16.218Z,99379.63
2023-07-24T16:31:18.370Z,99367.69
2023-07-24T16:36:22.059Z,99368.19
2023-07-24T16:41:23.950Z,99344.63
2023-07-24T16:46:26.356Z,99324.78
2023-07-24T16:51:30.289Z,99309.53
2023-07-24T16:56:32.701Z,99278.19
2023-07-24T17:01:35.300Z,99265.69
2023-07-24T17:06:38.945Z,99273.00
2023-07-24T17:11:41.152Z,99443.97
2023-07-24T17:16:42.891Z,99531.13
2023-07-24T17:21:45.922Z,99429.34
2023-07-24T17:26:48.170Z,99379.09
2023-07-24T17:31:50.024Z,99362.97
2023-07-24T17:36:53.058Z,99353.25
2023-07-24T17:41:55.171Z,99353.16
2023-07-24T17:46:57.308Z,99469.78
2023-07-24T17:52:00.794Z,99628.06
2023-07-24T17:57:02.588Z,99643.53
2023-07-24T18:02:05.031Z,99622.88
2023-07-24T18:07:08.529Z,99619.34
2023-07-24T18:12:10.248Z,99594.09
2023-07-24T18:17:12.040Z,99525.06
2023-07-24T18:22:15.692Z,99508.16
2023-07-24T18:27:17.614Z,99512.47
2023-07-24T18:32:19.350Z,99471.13
2023-07-24T18:37:22.458Z,99473.19
2023-07-24T18:42:24.243Z,99455.78
2023-07-24T18:47:26.064Z,99455.16
2023-07-24T18:52:29.310Z,99475.59
2023-07-24T18:57:31.090Z,99508.09
2023-07-24T19:02:32.929Z,99525.31
2023-07-24T19:07:36.479Z,99513.59
2023-07-24T19:12:38.760Z,99536.00
2023-07-24T19:17:40.881Z,99554.41
2023-07-24T19:22:43.999Z,99569.56
2023-07-24T19:27:45.961Z,99575.50
2023-07-24T19:32:47.983Z,99579.34
2023-07-24T19:37:51.137Z,99572.63
2023-07-24T19:42:53.213Z,99568.69
2023-07-24T19:47:55.464Z,99552.25
2023-07-24T19:52:58.949Z,99558.06
2023-07-24T19:58:00.888Z,99568.88
2023-07-24T20:03:02.679Z,99569.84
2023-07-24T20:08:06.139Z,99575.69
2023-07-24T20:13:07.836Z,99589.34
2023-07-24T20:18:10.043Z,99606.09
2023-07-24T20:23:14.185Z,99605.13
2023-07-24T20:28:16.231Z,99610.94
2023-07-24T20:33:18.367Z,99609.13
2023-07-24T20:38:28.516Z,99620.03
2023-07-24T20:43:30.702Z,99616.75
2023-07-24T20:48:32.557Z,99635.50
2023-07-24T20:53:36.440Z,99639.84
2023-07-24T20:58:38.701Z,99651.34
2023-07-24T21:03:40.821Z,99649.34
2023-07-24T21:08:44.008Z,99643.88
2023-07-24T21:13:46.414Z,99644.22
2023-07-24T21:18:48.455Z,99661.22
2023-07-24T21:23:52.044Z,99664.59
2023-07-24T21:28:54.349Z,99668.72
2023-07-24T21:33:56.057Z,99683.19
2023-07-24T21:38:59.638Z,99678.91
2023-07-24T21:44:01.647Z,99675.09
2023-07-24T21:49:03.951Z,99676.09
2023-07-24T21:54:07.374Z,99687.16
2023-07-24T21:59:09.685Z,99680.84
2023-07-24T22:04:11.920Z,99681.09
2023-07-24T22:09:15.072Z,99681.28
2023-07-24T22:14:17.107Z,99668.25
2023-07-24T22:19:18.938Z,99667.03
2023-07-24T22:24:22.596Z,99675.56
2023-07-24T22:29:24.562Z,99681.53
2023-07-24T22:34:26.691Z,99684.31
2023-07-24T22:39:30.200Z,99688.09
2023-07-24T22:44:32.422Z,99686.53
2023-07-24T22:49:34.609Z,99704.16
2023-07-24T22:54:38.152Z,99714.78
2023-07-24T22:59:39.922Z,99711.84
2023-07-24T23:04:41.663Z,99705.56
2023-07-24T23:09:44.875Z,99705.13
2023-07-24T23:14:46.617Z,99703.06
2023-07-24T23:19:48.768Z,99714.81
2023-07-24T23:24:52.561Z,99707.56
2023-07-24T23:29:54.897Z,99719.44
2023-07-24T23:34:57.022Z,99721.00
2023-07-24T23:40:00.472Z,99710.31
2023-07-24T23:45:02.622Z,99719.13
2023-07-24T23:50:05.389Z,99718.47
2023-07-24T23:55:09.400Z,99721.72
